Terminal Aerodrome Forecast
Issued by NWS

Home | Current Version | Previous Version | Text Only | Print | Product List | Glossary On
Versions: 1 2 3 4 5 6 7 8 9 10 11 12 13 14
000
FTUS46 KPDT 232100 AAA
TAFRDM
TAF AMD
KRDM 232132Z 2322/2418 24011KT P6SM SCT070 BKN200
     FM240300 16005KT P6SM BKN070 BKN200
     FM240900 16005KT P6SM -RA OVC045=

USA.gov is the U.S. government's official web portal to all federal, state and local government web resources and services.